Time;durP1;ratioP1;P1;durP2;ratioP2;P2;SDS_P1;SDS_P2;PMS_P1;PMS_P2;Temp;Humidity;BMP_temperature;BMP_pressure;BME280_temperature;BME280_humidity;BME280_pressure;Samples;Min_cycle;Max_cycle;Signal;HPM_P1;HPM_P2
2023/01/27 00:01:38;;;;;;;31.40;13.73;;;;;;;2.84;67.08;97459.25;4936214;28;20243;-75
2023/01/27 00:04:04;;;;;;;35.30;13.45;;;;;;;2.86;66.61;97462.44;4926047;28;20655;-75
2023/01/27 00:06:29;;;;;;;34.10;13.52;;;;;;;2.87;67.02;97458.91;4939600;28;20582;-75
2023/01/27 00:08:55;;;;;;;33.83;15.98;;;;;;;2.89;66.53;97454.34;4925163;28;20243;-75
2023/01/27 00:14:04;;;;;;;25.63;10.80;;;;;;;2.89;66.73;97455.13;4926678;28;20797;-75
2023/01/27 00:16:29;;;;;;;26.08;10.70;;;;;;;2.84;66.45;97452.34;4938454;28;20338;-75
2023/01/27 00:18:55;;;;;;;25.27;10.32;;;;;;;2.85;66.51;97448.78;4906473;28;20284;-75
2023/01/27 00:26:48;;;;;;;31.42;14.48;;;;;;;2.89;66.70;97444.06;4939686;28;20173;-75
2023/01/27 00:29:13;;;;;;;26.88;11.65;;;;;;;2.91;66.59;97442.09;4944505;28;20879;-77
2023/01/27 00:34:23;;;;;;;22.90;9.85;;;;;;;2.93;66.15;97443.50;4946659;28;20749;-77
2023/01/27 00:36:48;;;;;;;21.17;10.68;;;;;;;2.87;66.37;97440.91;4941493;28;20223;-77
2023/01/27 00:39:13;;;;;;;23.55;10.13;;;;;;;2.92;66.29;97439.34;4941462;28;20203;-77
2023/01/27 00:41:40;;;;;;;22.17;10.40;;;;;;;2.83;67.07;97449.94;4940857;28;20191;-77
2023/01/27 00:44:05;;;;;;;22.98;9.73;;;;;;;2.87;66.90;97444.25;4943717;28;20217;-77
2023/01/27 00:46:31;;;;;;;20.42;8.85;;;;;;;2.85;66.52;97443.66;4928809;28;20324;-77
2023/01/27 00:48:56;;;;;;;22.60;9.85;;;;;;;2.88;66.14;97439.91;4945093;28;20340;-77
2023/01/27 00:51:22;;;;;;;26.15;9.48;;;;;;;2.89;66.80;97438.94;4918676;28;20198;-77
2023/01/27 00:53:48;;;;;;;22.10;9.85;;;;;;;2.83;66.92;97432.75;4929009;28;20191;-77
2023/01/27 00:56:13;;;;;;;25.05;9.80;;;;;;;2.83;67.06;97435.34;4926502;28;20224;-78
2023/01/27 00:58:39;;;;;;;22.05;10.07;;;;;;;2.87;66.74;97430.59;4942226;28;20207;-77
2023/01/27 01:01:07;;;;;;;24.25;9.55;;;;;;;2.96;67.06;97429.47;4933493;28;20272;-77
2023/01/27 01:03:34;;;;;;;22.85;9.90;;;;;;;2.98;66.60;97430.06;4943445;28;20261;-77
2023/01/27 01:06:02;;;;;;;20.40;7.85;;;;;;;3.04;66.70;97431.91;4923343;28;20261;-77
2023/01/27 01:08:29;;;;;;;20.08;8.30;;;;;;;3.00;66.15;97430.69;4927116;28;20099;-77
2023/01/27 01:10:54;;;;;;;22.00;9.48;;;;;;;2.97;66.28;97433.63;4907915;28;20649;-77
2023/01/27 01:13:20;;;;;;;21.05;9.18;;;;;;;3.06;65.97;97432.50;4936430;28;20238;-77
2023/01/27 01:15:46;;;;;;;22.70;9.43;;;;;;;3.03;66.40;97432.88;4921480;28;20655;-77
2023/01/27 01:18:11;;;;;;;21.73;8.43;;;;;;;2.92;66.69;97430.84;4939110;28;20192;-75
2023/01/27 01:20:46;;;;;;;21.42;9.40;;;;;;;3.04;66.87;97443.97;4926893;28;20294;-76
2023/01/27 01:23:12;;;;;;;26.05;10.55;;;;;;;2.89;67.15;97449.22;4925336;28;20239;-75
2023/01/27 01:25:38;;;;;;;23.38;9.02;;;;;;;2.90;66.55;97443.88;4910553;28;20261;-76
2023/01/27 01:28:05;;;;;;;22.98;9.63;;;;;;;2.95;66.80;97443.31;4911522;28;20663;-75
2023/01/27 01:30:30;;;;;;;24.35;8.98;;;;;;;2.87;66.87;97449.41;4925467;28;20195;-76
2023/01/27 01:32:56;;;;;;;20.67;8.65;;;;;;;2.92;66.78;97439.34;4940000;28;20646;-76
2023/01/27 01:35:23;;;;;;;21.25;8.57;;;;;;;3.00;66.37;97440.97;4921435;28;20219;-76
2023/01/27 01:37:50;;;;;;;22.77;9.50;;;;;;;2.97;66.45;97447.28;4943970;28;20185;-75
2023/01/27 01:40:15;;;;;;;23.17;9.07;;;;;;;2.96;67.28;97444.91;4919629;28;20166;-75
2023/01/27 01:42:56;;;;;;;20.58;9.48;;;;;;;3.00;67.20;97440.97;4939944;28;20257;-76
2023/01/27 01:45:30;;;;;;;22.77;9.93;;;;;;;3.06;66.88;97442.78;4937928;28;21091;-76
2023/01/27 01:47:58;;;;;;;18.83;8.13;;;;;;;2.99;67.25;97434.25;4943104;28;20648;-75
2023/01/27 01:50:23;;;;;;;21.65;9.07;;;;;;;3.04;66.87;97436.25;4914274;28;20215;-75
2023/01/27 01:52:48;;;;;;;20.60;8.43;;;;;;;2.97;66.57;97437.00;4938927;28;20332;-76
2023/01/27 01:55:14;;;;;;;21.33;8.27;;;;;;;2.95;67.28;97448.47;4939431;28;20199;-76
2023/01/27 01:57:41;;;;;;;23.80;9.00;;;;;;;2.93;67.41;97440.13;4922805;28;20287;-76
2023/01/27 02:00:08;;;;;;;22.85;8.60;;;;;;;2.94;67.55;97442.50;4914816;28;20227;-75
2023/01/27 02:02:34;;;;;;;21.63;9.27;;;;;;;2.92;67.61;97441.13;4929852;28;20227;-76
2023/01/27 02:05:07;;;;;;;18.20;8.18;;;;;;;2.94;67.56;97427.09;4923592;28;20374;-76
2023/01/27 02:07:56;;;;;;;22.17;8.75;;;;;;;3.18;66.50;97427.59;4921060;28;20192;-76
2023/01/27 02:10:22;;;;;;;21.67;8.52;;;;;;;3.00;67.33;97425.56;4917895;28;20287;-75
2023/01/27 02:12:47;;;;;;;21.83;8.18;;;;;;;2.92;67.76;97426.47;4933628;28;20111;-75
2023/01/27 02:15:13;;;;;;;19.13;8.68;;;;;;;2.94;67.46;97427.09;4932499;28;20160;-76
2023/01/27 02:17:38;;;;;;;24.63;8.80;;;;;;;2.88;67.95;97424.47;4941207;28;20709;-75
2023/01/27 02:20:06;;;;;;;24.95;9.18;;;;;;;2.76;68.79;97419.88;4939780;28;20677;-76
2023/01/27 02:22:53;;;;;;;27.00;9.57;;;;;;;2.94;68.31;97421.94;4937045;28;20326;-76
2023/01/27 02:25:25;;;;;;;26.02;9.07;;;;;;;2.89;67.99;97418.34;4942623;28;20289;-75
2023/01/27 02:27:51;;;;;;;21.85;8.32;;;;;;;2.76;68.72;97424.19;4925323;28;20200;-76
2023/01/27 02:30:16;;;;;;;29.30;12.15;;;;;;;2.73;69.21;97416.88;4937037;28;20258;-76
2023/01/27 02:32:43;;;;;;;26.20;11.75;;;;;;;2.83;68.80;97421.66;4925831;28;20197;-75
2023/01/27 02:35:10;;;;;;;26.90;9.75;;;;;;;2.86;68.89;97422.06;4921750;28;20356;-76
2023/01/27 02:37:36;;;;;;;32.85;11.70;;;;;;;2.89;68.68;97418.34;4902183;28;20645;-76
2023/01/27 02:40:04;;;;;;;27.73;12.00;;;;;;;2.85;69.12;97417.16;4925479;28;20563;-75
2023/01/27 02:42:29;;;;;;;23.17;10.00;;;;;;;2.97;68.78;97420.78;4931754;28;20657;-76
2023/01/27 02:44:54;;;;;;;27.63;10.82;;;;;;;2.87;68.91;97425.47;4919337;28;20190;-78
2023/01/27 02:47:20;;;;;;;25.13;11.18;;;;;;;2.91;68.79;97421.53;4943869;28;20544;-78
2023/01/27 02:49:45;;;;;;;26.70;10.40;;;;;;;2.88;68.84;97422.72;4946406;28;20248;-77
2023/01/27 02:52:10;;;;;;;27.73;9.55;;;;;;;2.98;68.87;97427.50;4936634;28;20199;-78
2023/01/27 02:54:36;;;;;;;22.45;9.68;;;;;;;2.97;68.75;97411.28;4945721;28;20207;-78
2023/01/27 02:57:01;;;;;;;25.73;10.00;;;;;;;3.03;68.66;97420.00;4910744;28;20165;-77
2023/01/27 02:59:26;;;;;;;22.85;9.15;;;;;;;2.92;68.84;97417.97;4946320;28;20273;-77
2023/01/27 03:01:52;;;;;;;25.10;9.27;;;;;;;2.78;70.14;97417.09;4922695;28;20643;-77
2023/01/27 03:04:17;;;;;;;26.52;9.07;;;;;;;2.90;69.43;97419.94;4927005;28;20651;-78
2023/01/27 03:06:42;;;;;;;26.33;9.65;;;;;;;2.82;69.63;97418.31;4943845;28;20244;-77
2023/01/27 03:09:08;;;;;;;24.00;8.95;;;;;;;2.87;69.56;97418.53;4925031;28;20197;-78
2023/01/27 03:14:17;;;;;;;22.10;9.15;;;;;;;2.86;69.99;97426.44;4944098;28;20213;-77
2023/01/27 03:19:27;;;;;;;22.23;8.50;;;;;;;2.83;70.13;97427.63;4927963;28;20267;-79
2023/01/27 03:21:52;;;;;;;21.35;8.57;;;;;;;2.95;70.12;97433.03;4939591;28;20304;-77
2023/01/27 03:24:19;;;;;;;23.38;9.00;;;;;;;2.84;70.53;97436.13;4919849;28;20230;-78
2023/01/27 03:26:44;;;;;;;21.38;8.35;;;;;;;2.87;70.58;97433.19;4945129;28;20283;-77
2023/01/27 03:31:54;;;;;;;18.98;8.25;;;;;;;3.01;69.95;97427.13;4938808;28;20318;-77
2023/01/27 03:34:19;;;;;;;17.30;7.43;;;;;;;3.08;69.52;97433.09;4922349;28;20252;-75
2023/01/27 03:47:41;;;;;;;13.52;6.03;;;;;;;2.95;70.59;97433.81;4936509;28;20345;-77
2023/01/27 03:50:10;;;;;;;13.95;5.35;;;;;;;2.84;70.93;97441.25;4910984;28;20565;-77
2023/01/27 03:52:39;;;;;;;10.57;4.82;;;;;;;2.74;70.95;97439.84;4930231;28;20203;-78
2023/01/27 03:55:08;;;;;;;11.63;4.82;;;;;;;2.62;71.75;97439.53;4943438;28;20278;-78
2023/01/27 03:57:35;;;;;;;12.13;5.60;;;;;;;2.65;71.97;97433.22;4927673;28;21072;-81
2023/01/27 04:00:01;;;;;;;11.05;4.60;;;;;;;2.64;71.63;97431.66;4945345;28;20217;-78
2023/01/27 04:07:54;;;;;;;9.57;4.10;;;;;;;2.62;71.03;97442.13;4943831;28;20192;-79
2023/01/27 04:10:19;;;;;;;9.07;4.10;;;;;;;2.66;71.46;97437.41;4928862;28;20654;-79
2023/01/27 04:12:47;;;;;;;8.80;4.00;;;;;;;2.86;70.46;97440.06;4943483;28;20245;-78
2023/01/27 04:15:13;;;;;;;9.27;4.35;;;;;;;2.79;70.23;97436.69;4926622;28;20207;-78
2023/01/27 04:17:39;;;;;;;8.13;3.58;;;;;;;2.90;69.66;97436.16;4914850;28;20193;-78
2023/01/27 04:20:05;;;;;;;8.93;4.00;;;;;;;2.85;69.82;97435.16;4948134;28;20187;-78
2023/01/27 04:22:30;;;;;;;8.70;4.78;;;;;;;2.80;70.12;97439.06;4947191;28;20179;-78
2023/01/27 04:24:56;;;;;;;7.20;3.40;;;;;;;2.85;69.95;97437.72;4945190;28;20274;-78
2023/01/27 04:27:21;;;;;;;9.27;4.07;;;;;;;2.83;70.38;97437.91;4930948;28;20212;-78
2023/01/27 04:29:46;;;;;;;7.03;3.25;;;;;;;2.73;69.90;97440.00;4933123;28;20302;-79
2023/01/27 04:32:12;;;;;;;8.63;4.28;;;;;;;2.78;69.82;97443.59;4931639;28;20270;-78
2023/01/27 04:34:39;;;;;;;9.75;4.55;;;;;;;2.87;69.52;97451.19;4928068;28;20200;-78
2023/01/27 04:37:05;;;;;;;9.60;4.07;;;;;;;2.46;70.31;97444.94;4945090;28;20331;-78
2023/01/27 04:39:31;;;;;;;8.48;3.78;;;;;;;2.72;69.90;97439.19;4916983;28;20191;-78
2023/01/27 04:41:57;;;;;;;7.97;4.47;;;;;;;2.61;70.77;97447.44;4915457;28;20278;-77
2023/01/27 04:44:23;;;;;;;10.15;4.53;;;;;;;2.80;69.58;97451.91;4944507;28;20307;-78
2023/01/27 04:46:48;;;;;;;11.02;3.90;;;;;;;2.80;69.64;97451.91;4944343;28;20235;-78
2023/01/27 04:49:14;;;;;;;8.02;3.78;;;;;;;2.57;70.34;97451.34;4900323;28;20742;-79
2023/01/27 04:51:39;;;;;;;10.45;4.97;;;;;;;2.76;69.71;97449.91;4941304;28;20717;-78
2023/01/27 04:54:05;;;;;;;10.88;4.10;;;;;;;2.60;70.15;97450.97;4943521;28;20342;-78
2023/01/27 04:56:31;;;;;;;11.02;4.53;;;;;;;2.83;69.61;97458.47;4922955;28;20196;-78
2023/01/27 04:59:01;;;;;;;8.88;4.35;;;;;;;3.02;69.12;97453.63;4925271;28;20611;-78
2023/01/27 05:01:27;;;;;;;8.57;3.85;;;;;;;2.85;69.19;97455.72;4925621;28;20278;-77
2023/01/27 05:03:53;;;;;;;10.68;4.88;;;;;;;2.76;69.36;97450.72;4944834;28;20167;-78
2023/01/27 05:06:19;;;;;;;8.77;4.28;;;;;;;2.73;69.11;97460.59;4946214;28;21436;-79
2023/01/27 05:08:44;;;;;;;8.13;4.18;;;;;;;2.73;69.78;97460.59;4931786;28;20630;-78
2023/01/27 05:11:10;;;;;;;11.63;4.45;;;;;;;2.98;68.24;97458.34;4942070;28;20180;-78
2023/01/27 05:13:36;;;;;;;10.35;4.93;;;;;;;2.95;68.57;97463.91;4928828;28;20290;-79
2023/01/27 05:16:17;;;;;;;8.20;3.70;;;;;;;2.84;69.38;97466.97;4938191;28;20353;-77
2023/01/27 05:18:43;;;;;;;7.63;4.35;;;;;;;2.79;69.57;97467.53;4923857;28;20176;-76
2023/01/27 05:21:11;;;;;;;7.95;4.35;;;;;;;2.90;69.15;97472.16;4944975;28;20298;-78
2023/01/27 05:23:37;;;;;;;9.13;4.80;;;;;;;2.91;68.85;97467.81;4924205;28;20216;-78
2023/01/27 05:26:08;;;;;;;11.02;4.88;;;;;;;2.61;69.86;97475.72;4945653;28;20187;-78
2023/01/27 05:28:35;;;;;;;8.68;4.38;;;;;;;2.49;69.95;97479.78;4931377;28;20748;-79
2023/01/27 05:31:05;;;;;;;11.30;5.15;;;;;;;2.53;70.33;97481.78;4928807;28;20238;-78
2023/01/27 05:33:31;;;;;;;9.63;4.05;;;;;;;2.60;70.16;97484.41;4940586;28;20774;-78
2023/01/27 05:36:03;;;;;;;9.45;4.32;;;;;;;2.75;69.63;97477.41;4911856;28;20254;-78
2023/01/27 05:38:29;;;;;;;12.10;4.78;;;;;;;2.59;69.50;97485.41;4928478;28;20297;-78
2023/01/27 05:41:00;;;;;;;8.45;4.95;;;;;;;2.89;68.92;97478.28;4943784;28;20288;-78
2023/01/27 05:43:27;;;;;;;12.00;5.00;;;;;;;2.79;68.96;97482.97;4919251;28;20810;-78
2023/01/27 05:45:53;;;;;;;10.75;4.32;;;;;;;2.85;69.12;97478.88;4940592;28;20643;-78
2023/01/27 05:48:18;;;;;;;10.80;5.22;;;;;;;2.62;69.96;97490.97;4946585;28;20282;-78
2023/01/27 05:50:52;;;;;;;9.82;4.93;;;;;;;2.68;69.61;97488.63;4931441;28;20230;-78
2023/01/27 05:53:18;;;;;;;10.33;4.27;;;;;;;2.34;70.70;97493.47;4943246;28;20231;-78
2023/01/27 05:55:43;;;;;;;11.13;5.10;;;;;;;2.40;70.36;97481.69;4925180;28;20137;-78
2023/01/27 05:58:08;;;;;;;10.02;5.43;;;;;;;2.51;70.28;97498.38;4931269;28;20338;-78
2023/01/27 06:00:34;;;;;;;9.90;4.15;;;;;;;2.74;69.37;97503.28;4944868;28;20234;-78
2023/01/27 06:02:59;;;;;;;10.68;5.63;;;;;;;2.77;69.40;97496.00;4962336;28;20204;-78
2023/01/27 06:05:25;;;;;;;12.10;5.35;;;;;;;2.61;69.51;97491.94;4947466;28;20251;-78
2023/01/27 06:07:50;;;;;;;12.23;5.47;;;;;;;2.65;70.60;97494.13;4913127;28;20193;-78
2023/01/27 06:10:16;;;;;;;11.13;5.13;;;;;;;2.55;70.53;97500.41;4948654;28;20114;-78
2023/01/27 06:12:41;;;;;;;12.15;5.30;;;;;;;2.31;70.29;97504.09;4946736;28;20208;-80
2023/01/27 06:15:07;;;;;;;9.73;4.15;;;;;;;2.57;69.72;97507.91;4927366;28;20213;-79
2023/01/27 06:17:32;;;;;;;9.52;4.63;;;;;;;2.65;69.94;97504.41;4930383;28;20196;-77
2023/01/27 06:19:58;;;;;;;12.07;5.05;;;;;;;2.72;69.39;97495.75;4895883;28;20209;-78
2023/01/27 06:22:23;;;;;;;9.02;4.15;;;;;;;2.64;69.44;97506.19;4945236;28;20243;-78
2023/01/27 06:24:48;;;;;;;12.88;5.43;;;;;;;2.68;69.53;97504.84;4945413;28;20637;-77
2023/01/27 06:27:14;;;;;;;12.75;5.30;;;;;;;2.49;70.04;97506.25;4927697;28;20839;-80
2023/01/27 06:29:39;;;;;;;13.45;5.85;;;;;;;2.57;69.68;97508.72;4915498;28;20731;-78
2023/01/27 06:32:04;;;;;;;10.82;5.20;;;;;;;2.44;70.23;97506.81;4941473;28;20769;-78
2023/01/27 06:34:30;;;;;;;11.52;5.95;;;;;;;2.66;69.45;97511.94;4927239;28;20213;-77
2023/01/27 06:36:55;;;;;;;12.63;5.53;;;;;;;2.46;70.31;97516.13;4911547;28;20200;-78
2023/01/27 06:39:20;;;;;;;12.18;5.15;;;;;;;2.52;70.04;97510.22;4945224;28;20224;-77
2023/01/27 06:41:48;;;;;;;12.88;5.78;;;;;;;2.53;69.86;97511.81;4929518;28;20182;-78
2023/01/27 06:44:13;;;;;;;17.20;7.28;;;;;;;2.56;70.07;97511.47;4899887;28;20166;-77
2023/01/27 06:46:39;;;;;;;13.05;5.28;;;;;;;2.68;69.13;97514.34;4921463;28;20208;-78
2023/01/27 06:49:04;;;;;;;13.73;6.60;;;;;;;2.75;68.90;97518.53;4913543;28;20265;-78
2023/01/27 06:51:29;;;;;;;14.23;6.55;;;;;;;2.72;68.79;97525.81;4912929;28;20222;-78
2023/01/27 06:53:55;;;;;;;19.80;6.82;;;;;;;2.68;68.97;97527.97;4927558;28;20654;-78
2023/01/27 06:56:20;;;;;;;13.07;5.78;;;;;;;2.52;69.41;97526.47;4944856;28;20455;-78
2023/01/27 06:58:46;;;;;;;13.15;5.40;;;;;;;2.65;69.49;97530.13;4947589;28;20367;-78
2023/01/27 07:01:11;;;;;;;14.85;7.90;;;;;;;2.35;69.79;97531.03;4910185;28;20278;-79
2023/01/27 07:03:36;;;;;;;12.27;6.15;;;;;;;2.39;70.36;97542.53;4943734;28;20256;-79
2023/01/27 07:06:02;;;;;;;13.95;6.82;;;;;;;2.41;70.04;97539.78;4947253;28;20701;-78
2023/01/27 07:08:27;;;;;;;14.32;6.60;;;;;;;2.49;70.05;97536.31;4930329;28;20578;-78
2023/01/27 07:10:53;;;;;;;12.63;6.25;;;;;;;2.50;70.10;97541.28;4924837;28;20293;-78
2023/01/27 07:13:18;;;;;;;17.17;6.47;;;;;;;2.57;69.91;97544.69;4929129;28;20641;-77
2023/01/27 07:15:43;;;;;;;16.10;8.43;;;;;;;2.55;70.14;97556.94;4920464;28;20209;-77
2023/01/27 07:18:10;;;;;;;16.38;7.88;;;;;;;2.59;69.95;97547.09;4913364;28;20253;-79
2023/01/27 07:20:36;;;;;;;13.70;6.38;;;;;;;2.40;69.93;97551.06;4942498;28;20195;-77
2023/01/27 07:23:03;;;;;;;15.73;7.00;;;;;;;2.53;69.73;97558.09;4929348;28;20334;-77
2023/01/27 07:25:29;;;;;;;26.73;12.98;;;;;;;2.53;70.12;97558.88;4924635;28;20166;-76
2023/01/27 07:27:59;;;;;;;20.00;8.13;;;;;;;2.65;70.14;97558.41;4933578;28;20210;-76
2023/01/27 07:30:25;;;;;;;17.48;8.57;;;;;;;2.56;69.48;97557.72;4921966;28;20801;-76
2023/01/27 07:32:51;;;;;;;22.23;8.30;;;;;;;2.56;70.25;97563.66;4903383;28;20273;-77
2023/01/27 07:35:17;;;;;;;16.52;6.80;;;;;;;2.62;70.24;97569.84;4910788;28;20579;-78
2023/01/27 07:37:42;;;;;;;14.68;6.78;;;;;;;2.61;69.33;97552.84;4943272;28;20689;-78
2023/01/27 07:40:09;;;;;;;15.85;7.40;;;;;;;2.61;69.81;97560.53;4937761;28;20243;-76
2023/01/27 07:42:34;;;;;;;20.13;8.10;;;;;;;2.60;69.77;97566.66;4902070;28;20385;-78
2023/01/27 07:45:00;;;;;;;14.52;6.93;;;;;;;2.55;70.04;97568.97;4932630;28;20417;-78
2023/01/27 07:47:25;;;;;;;15.77;6.68;;;;;;;2.56;70.24;97573.16;4943767;28;20138;-78
2023/01/27 07:49:50;;;;;;;15.50;7.35;;;;;;;2.50;70.41;97574.69;4930954;28;20601;-78
2023/01/27 07:52:16;;;;;;;16.55;6.80;;;;;;;2.60;69.93;97577.75;4931657;28;20258;-76
2023/01/27 07:54:41;;;;;;;13.45;5.57;;;;;;;2.62;69.66;97572.41;4946163;28;20634;-77
2023/01/27 07:57:07;;;;;;;14.90;7.15;;;;;;;2.77;69.26;97580.06;4943735;28;20165;-76
2023/01/27 07:59:32;;;;;;;14.60;6.75;;;;;;;2.73;69.40;97577.06;4950158;28;20280;-76
2023/01/27 08:01:57;;;;;;;14.48;6.13;;;;;;;2.59;69.46;97577.94;4924417;28;21012;-77
2023/01/27 08:04:23;;;;;;;15.32;6.50;;;;;;;2.74;68.79;97576.09;4930316;28;20186;-77
2023/01/27 08:06:48;;;;;;;14.48;7.70;;;;;;;2.81;69.06;97581.28;4943173;28;20779;-76
2023/01/27 08:09:13;;;;;;;14.00;6.13;;;;;;;2.90;68.77;97594.84;4923763;28;20707;-76
2023/01/27 08:11:39;;;;;;;9.75;5.45;;;;;;;2.72;69.45;97598.59;4947571;28;20247;-76
2023/01/27 08:14:05;;;;;;;12.25;6.32;;;;;;;2.97;68.30;97593.91;4948708;28;20229;-76
2023/01/27 08:16:30;;;;;;;12.73;7.25;;;;;;;2.65;69.42;97587.47;4950327;28;20319;-76
2023/01/27 08:18:55;;;;;;;10.65;5.45;;;;;;;2.76;69.37;97587.00;4927083;28;20256;-76
2023/01/27 08:21:21;;;;;;;13.10;5.78;;;;;;;2.90;68.46;97584.53;4948999;28;20315;-76
2023/01/27 08:23:46;;;;;;;15.07;6.88;;;;;;;2.98;68.35;97594.69;4933495;28;20195;-76
2023/01/27 08:26:12;;;;;;;12.02;5.88;;;;;;;2.99;68.30;97594.50;4926562;28;20535;-76
2023/01/27 08:28:38;;;;;;;14.52;6.55;;;;;;;2.90;69.08;97602.56;4912701;28;20327;-76
2023/01/27 08:31:13;;;;;;;12.27;5.95;;;;;;;2.84;69.29;97605.84;4945273;28;20141;-77
2023/01/27 08:33:39;;;;;;;11.57;5.82;;;;;;;2.93;68.50;97597.81;4948852;28;20586;-76
2023/01/27 08:36:10;;;;;;;13.75;6.80;;;;;;;2.90;68.50;97605.13;4948279;28;20352;-77
2023/01/27 08:38:36;;;;;;;12.93;4.75;;;;;;;2.92;68.40;97598.00;4932336;28;20579;-76
2023/01/27 08:41:10;;;;;;;10.43;5.70;;;;;;;3.07;68.50;97600.50;4945826;28;20728;-77
2023/01/27 08:43:35;;;;;;;11.00;5.60;;;;;;;2.77;69.19;97604.00;4916869;28;20649;-77
2023/01/27 08:46:01;;;;;;;13.13;6.13;;;;;;;2.76;69.18;97607.56;4949226;28;20208;-76
2023/01/27 08:48:27;;;;;;;13.25;6.20;;;;;;;2.73;69.30;97604.56;4933502;28;20787;-76
2023/01/27 08:50:53;;;;;;;10.32;4.93;;;;;;;2.63;69.27;97597.94;4917987;28;20199;-77
2023/01/27 08:53:20;;;;;;;11.85;5.53;;;;;;;2.84;68.55;97605.84;4950281;28;20303;-76
2023/01/27 08:55:46;;;;;;;10.23;4.85;;;;;;;2.68;69.14;97612.03;4952033;28;20294;-77
2023/01/27 08:58:11;;;;;;;10.52;5.28;;;;;;;2.75;69.28;97618.03;4950376;28;20661;-76
2023/01/27 09:00:36;;;;;;;10.43;4.70;;;;;;;2.58;69.58;97609.75;4907827;28;20189;-76
2023/01/27 09:03:02;;;;;;;11.10;5.15;;;;;;;2.78;69.54;97621.03;4926901;28;20797;-76
2023/01/27 09:05:27;;;;;;;10.02;5.72;;;;;;;2.82;69.55;97624.03;4914719;28;20190;-78
2023/01/27 09:07:53;;;;;;;13.65;7.15;;;;;;;2.85;69.37;97628.03;4947826;28;20266;-77
2023/01/27 09:10:18;;;;;;;10.10;5.55;;;;;;;2.91;68.63;97630.63;4946335;28;20210;-76
2023/01/27 09:12:44;;;;;;;9.90;4.40;;;;;;;2.90;68.86;97630.84;4947092;28;20207;-76
2023/01/27 09:15:11;;;;;;;9.30;4.43;;;;;;;2.85;69.32;97630.59;4931002;28;20712;-76
2023/01/27 09:17:36;;;;;;;11.65;5.15;;;;;;;2.98;68.69;97634.09;4914315;28;20168;-76
2023/01/27 09:20:02;;;;;;;7.38;4.18;;;;;;;3.11;68.25;97645.47;4947074;28;20195;-77
2023/01/27 09:22:27;;;;;;;9.70;4.70;;;;;;;3.22;67.49;97644.94;4946341;28;20183;-76
2023/01/27 09:24:53;;;;;;;8.93;4.50;;;;;;;3.13;68.12;97646.06;4929912;28;20216;-78
2023/01/27 09:27:18;;;;;;;8.40;4.15;;;;;;;2.79;69.20;97645.78;4914533;28;20176;-76
2023/01/27 09:29:43;;;;;;;11.73;5.75;;;;;;;3.10;68.27;97647.25;4930117;28;20161;-76
2023/01/27 09:32:11;;;;;;;9.30;4.90;;;;;;;3.25;68.22;97643.78;4914178;28;20284;-76
2023/01/27 09:34:40;;;;;;;23.05;10.70;;;;;;;3.37;67.63;97652.59;4913762;28;20275;-76
2023/01/27 09:37:08;;;;;;;14.18;6.57;;;;;;;3.49;66.43;97660.63;4945560;28;20238;-77
2023/01/27 09:39:38;;;;;;;10.52;4.95;;;;;;;3.54;66.66;97658.28;4930345;28;20172;-76
2023/01/27 09:42:14;;;;;;;8.38;4.20;;;;;;;3.40;67.46;97657.38;4926743;28;20169;-76
2023/01/27 09:44:49;;;;;;;8.60;4.28;;;;;;;3.25;67.99;97659.25;4914343;28;20203;-77
2023/01/27 09:47:40;;;;;;;10.40;4.78;;;;;;;3.46;67.67;97656.66;4946897;28;20191;-76
2023/01/27 09:50:24;;;;;;;7.82;4.40;;;;;;;3.64;66.55;97657.97;4913432;28;20425;-76
2023/01/27 09:53:00;;;;;;;8.23;3.50;;;;;;;3.32;67.40;97666.03;4949045;28;20208;-77
2023/01/27 09:55:29;;;;;;;10.55;4.47;;;;;;;3.37;67.02;97668.03;4926724;28;20733;-77
2023/01/27 09:58:22;;;;;;;8.13;3.78;;;;;;;3.62;66.51;97665.06;4946543;28;20195;-76
2023/01/27 10:01:04;;;;;;;7.80;4.05;;;;;;;3.56;66.75;97667.41;4929790;28;20204;-76
2023/01/27 10:03:42;;;;;;;8.63;4.10;;;;;;;3.53;66.99;97678.09;4929273;28;20207;-76
2023/01/27 10:06:20;;;;;;;8.98;4.25;;;;;;;3.48;66.93;97672.69;4946527;28;20239;-77
2023/01/27 10:09:23;;;;;;;8.88;4.35;;;;;;;3.20;67.10;97672.66;4930442;28;20172;-77
2023/01/27 10:12:00;;;;;;;6.70;4.43;;;;;;;3.39;67.12;97676.38;4946586;28;20633;-77
2023/01/27 10:14:44;;;;;;;7.68;4.60;;;;;;;3.22;67.89;97675.81;4946799;28;20270;-76
2023/01/27 10:17:25;;;;;;;6.60;3.42;;;;;;;3.49;66.52;97656.25;4945362;28;20191;-76
2023/01/27 10:20:26;;;;;;;8.60;3.78;;;;;;;3.45;66.81;97662.78;4930145;28;20244;-76
2023/01/27 10:23:05;;;;;;;7.60;4.40;;;;;;;3.66;66.18;97661.91;4911085;28;20261;-77
2023/01/27 10:25:54;;;;;;;7.63;4.10;;;;;;;3.68;66.84;97659.16;4922522;28;20293;-76
2023/01/27 10:28:22;;;;;;;9.00;3.72;;;;;;;3.86;66.30;97659.47;4946425;28;20625;-76
2023/01/27 10:30:59;;;;;;;7.03;3.58;;;;;;;3.76;66.09;97651.31;4929853;28;20180;-77
2023/01/27 10:33:43;;;;;;;9.52;4.75;;;;;;;3.95;65.76;97644.66;4929534;28;20612;-76
2023/01/27 10:36:20;;;;;;;10.25;4.50;;;;;;;3.81;66.43;97641.22;4920547;28;20678;-76
2023/01/27 10:39:09;;;;;;;7.20;3.47;;;;;;;3.47;66.69;97645.34;4948257;28;20231;-78
2023/01/27 10:41:40;;;;;;;8.57;4.53;;;;;;;3.32;68.05;97642.06;4925616;28;20321;-79
2023/01/27 10:44:13;;;;;;;9.18;4.38;;;;;;;3.29;68.01;97652.72;4943944;28;20185;-79
2023/01/27 10:46:50;;;;;;;9.60;4.80;;;;;;;3.54;67.35;97638.47;4945983;28;20375;-77
2023/01/27 10:49:24;;;;;;;6.95;3.30;;;;;;;3.29;68.01;97638.09;4945999;28;20191;-77
2023/01/27 10:52:01;;;;;;;9.38;4.57;;;;;;;3.33;68.35;97635.94;4948091;28;20196;-78
2023/01/27 10:54:34;;;;;;;8.18;4.25;;;;;;;3.34;67.90;97638.34;4947875;28;20269;-78
2023/01/27 10:57:05;;;;;;;8.88;4.75;;;;;;;3.54;67.63;97637.69;4928016;28;20655;-76
2023/01/27 10:59:36;;;;;;;8.45;4.88;;;;;;;3.62;67.11;97631.59;4932915;28;20117;-77
2023/01/27 11:02:13;;;;;;;8.80;4.43;;;;;;;3.11;68.35;97632.59;4911683;28;20582;-77
2023/01/27 11:04:48;;;;;;;7.90;3.63;;;;;;;3.56;67.79;97628.81;4947841;28;20244;-77
2023/01/27 11:07:18;;;;;;;9.52;4.95;;;;;;;3.53;68.23;97628.34;4927990;28;20557;-77
2023/01/27 11:09:57;;;;;;;10.35;4.50;;;;;;;3.31;68.48;97627.63;4924161;28;20647;-77
2023/01/27 11:12:30;;;;;;;9.13;4.43;;;;;;;3.69;67.44;97629.88;4930746;28;20183;-77
2023/01/27 11:14:56;;;;;;;8.02;4.18;;;;;;;3.48;68.01;97636.66;4930921;28;20261;-78
2023/01/27 11:17:40;;;;;;;7.85;4.93;;;;;;;3.77;67.76;97631.47;4948586;28;20664;-78
2023/01/27 11:20:24;;;;;;;11.88;5.75;;;;;;;3.96;67.00;97630.81;4947484;28;20574;-78
2023/01/27 11:22:57;;;;;;;16.88;8.68;;;;;;;3.85;67.52;97619.25;4949396;28;20203;-78
2023/01/27 11:25:24;;;;;;;7.68;4.07;;;;;;;3.86;67.40;97628.56;4929248;28;20233;-78
2023/01/27 11:28:03;;;;;;;10.75;5.50;;;;;;;3.78;68.52;97625.34;4929830;28;20208;-78
2023/01/27 11:31:17;;;;;;;8.57;4.00;;;;;;;3.78;67.36;97622.78;4929934;28;20274;-79
2023/01/27 11:34:10;;;;;;;10.02;5.20;;;;;;;3.79;67.75;97622.59;4930266;28;20257;-78
2023/01/27 11:36:35;;;;;;;11.73;5.18;;;;;;;3.76;67.47;97620.41;4948913;28;20184;-77
2023/01/27 11:39:03;;;;;;;9.32;4.55;;;;;;;3.79;67.80;97625.16;4944874;28;20215;-78
2023/01/27 11:41:32;;;;;;;27.80;11.70;;;;;;;4.07;67.27;97621.75;4932254;28;20649;-78
2023/01/27 11:43:59;;;;;;;36.72;15.93;;;;;;;3.81;67.30;97623.19;4946864;28;20273;-77
2023/01/27 11:46:24;;;;;;;10.85;5.13;;;;;;;3.64;68.51;97622.69;4921389;28;20211;-76
2023/01/27 11:48:53;;;;;;;9.43;5.90;;;;;;;3.58;68.70;97620.06;4929288;28;20191;-78
2023/01/27 11:51:20;;;;;;;7.32;4.25;;;;;;;3.52;68.47;97622.41;4921663;28;20191;-78
2023/01/27 11:53:51;;;;;;;11.50;6.90;;;;;;;3.81;67.73;97615.47;4945584;28;20229;-78
2023/01/27 11:56:17;;;;;;;14.38;9.73;;;;;;;3.88;67.84;97621.44;4947129;28;20187;-77
2023/01/27 11:58:59;;;;;;;9.63;4.60;;;;;;;3.87;67.69;97619.88;4945454;28;20263;-77
2023/01/27 12:01:35;;;;;;;11.23;5.80;;;;;;;3.71;68.61;97622.75;4926205;28;20638;-78
2023/01/27 12:04:21;;;;;;;6.57;4.20;;;;;;;3.81;68.18;97619.84;4918331;28;20208;-78
2023/01/27 12:06:52;;;;;;;10.05;5.97;;;;;;;3.37;68.97;97616.56;4941030;28;20574;-78
2023/01/27 12:09:36;;;;;;;9.30;5.43;;;;;;;3.49;69.21;97622.78;4943786;28;20149;-77
2023/01/27 12:12:13;;;;;;;6.85;4.28;;;;;;;3.66;67.60;97618.16;4928847;28;20300;-77
2023/01/27 12:14:47;;;;;;;11.45;6.78;;;;;;;3.60;68.67;97624.06;4945251;28;20654;-77
2023/01/27 12:17:23;;;;;;;5.32;3.28;;;;;;;3.60;68.11;97615.53;4911469;28;20303;-76